Time;durP1;ratioP1;P1;durP2;ratioP2;P2;SDS_P1;SDS_P2;PMS_P1;PMS_P2;Temp;Humidity;BMP_temperature;BMP_pressure;BME280_temperature;BME280_humidity;BME280_pressure;Samples;Min_cycle;Max_cycle;Signal;HPM_P1;HPM_P2
2022/12/14 00:00:41;;;;;;;29.90;13.30;;;-3.80;99.90;;;;;;5082704;28;20044;-67
2022/12/14 00:03:07;;;;;;;34.72;12.95;;;-3.80;99.90;;;;;;5087841;28;20393;-66
2022/12/14 00:05:33;;;;;;;32.05;13.20;;;-3.90;99.90;;;;;;5093856;28;20128;-69
2022/12/14 00:07:59;;;;;;;;;;;-4.00;99.90;;;;;;5074167;28;20056;-66
2022/12/14 00:10:24;;;;;;;31.35;12.85;;;-3.90;99.90;;;;;;5070572;28;19924;-67
2022/12/14 00:12:50;;;;;;;26.98;12.32;;;-3.90;99.90;;;;;;5069917;28;20044;-67
2022/12/14 00:15:16;;;;;;;28.00;11.02;;;-3.90;99.90;;;;;;5085296;28;20045;-66
2022/12/14 00:17:41;;;;;;;39.80;14.48;;;-3.90;99.90;;;;;;5069767;28;20041;-66
2022/12/14 00:20:07;;;;;;;29.90;13.85;;;-3.90;99.90;;;;;;5070817;28;20052;-66
2022/12/14 00:22:33;;;;;;;28.05;12.77;;;-3.90;99.90;;;;;;5070259;28;20048;-66
2022/12/14 00:24:59;;;;;;;32.10;11.50;;;-3.90;99.90;;;;;;5083116;28;20035;-66
2022/12/14 00:27:25;;;;;;;35.17;13.13;;;-3.90;99.90;;;;;;5103344;28;20034;-67
2022/12/14 00:29:51;;;;;;;34.10;13.07;;;-4.00;99.90;;;;;;5090235;28;20105;-66
2022/12/14 00:32:17;;;;;;;30.70;12.48;;;-4.00;99.90;;;;;;5089239;28;20549;-66
2022/12/14 00:34:42;;;;;;;31.70;12.70;;;-4.00;99.90;;;;;;5086350;28;20051;-67
2022/12/14 00:37:08;;;;;;;37.47;13.07;;;-4.10;99.90;;;;;;5071946;28;20047;-66
2022/12/14 00:39:34;;;;;;;34.85;12.60;;;-4.10;99.90;;;;;;5070078;28;20051;-66
2022/12/14 00:41:59;;;;;;;40.72;14.18;;;-4.10;99.90;;;;;;5071431;28;20080;-66
2022/12/14 00:44:25;;;;;;;33.17;13.32;;;-4.10;99.90;;;;;;5090023;28;20093;-66
2022/12/14 00:46:51;;;;;;;32.25;11.45;;;-4.10;99.90;;;;;;5087341;28;20112;-66
2022/12/14 00:49:16;;;;;;;33.95;12.98;;;-4.10;99.90;;;;;;5110655;28;20051;-66
2022/12/14 00:51:42;;;;;;;36.60;13.38;;;-4.10;99.90;;;;;;5100658;28;20040;-66
2022/12/14 00:54:08;;;;;;;;;;;-4.10;99.90;;;;;;5090975;28;20469;-67
2022/12/14 00:56:34;;;;;;;34.00;12.45;;;-4.10;99.90;;;;;;5090192;28;19942;-67
2022/12/14 00:58:59;;;;;;;31.35;12.75;;;-4.10;99.90;;;;;;5091453;28;20345;-66
2022/12/14 01:01:29;;;;;;;36.90;12.65;;;-4.10;99.90;;;;;;5109008;28;20048;-66
2022/12/14 01:04:15;;;;;;;35.53;11.93;;;-4.10;99.90;;;;;;5097054;28;20508;-66
2022/12/14 01:06:45;;;;;;;36.15;11.40;;;-4.10;99.90;;;;;;5096555;28;20094;-69
2022/12/14 01:09:12;;;;;;;31.30;13.02;;;-4.10;99.90;;;;;;5097198;28;20134;-66
2022/12/14 01:11:38;;;;;;;36.90;13.85;;;-4.20;99.90;;;;;;5115732;28;20485;-66
2022/12/14 01:14:04;;;;;;;;;;;-4.20;99.90;;;;;;5117415;28;20058;-66
2022/12/14 01:16:30;;;;;;;35.72;13.52;;;-4.20;99.90;;;;;;5117271;28;19924;-66
2022/12/14 01:18:55;;;;;;;31.85;12.38;;;-4.20;99.90;;;;;;5117316;28;20039;-66
2022/12/14 01:21:22;;;;;;;33.03;12.75;;;-4.20;99.90;;;;;;5089208;28;20053;-67
2022/12/14 01:23:55;;;;;;;38.33;14.10;;;-4.20;99.90;;;;;;5076566;28;20055;-66
2022/12/14 01:26:22;;;;;;;35.17;11.45;;;-4.20;99.90;;;;;;5076674;28;20428;-66
2022/12/14 01:28:55;;;;;;;30.55;13.05;;;-4.20;99.90;;;;;;5076159;28;20045;-66
2022/12/14 01:31:24;;;;;;;35.53;13.82;;;-4.20;99.90;;;;;;5076369;28;20090;-66
2022/12/14 01:33:50;;;;;;;30.13;11.60;;;-4.20;99.90;;;;;;5102108;28;20515;-66
2022/12/14 01:36:19;;;;;;;32.58;10.55;;;-4.20;99.90;;;;;;5117008;28;20051;-66
2022/12/14 01:38:45;;;;;;;36.85;12.27;;;-4.20;99.90;;;;;;5117332;28;20147;-68
2022/12/14 01:41:29;;;;;;;33.58;11.98;;;-4.20;99.90;;;;;;5077394;28;20052;-66
2022/12/14 01:43:59;;;;;;;33.70;12.90;;;-4.20;99.90;;;;;;5076003;28;20091;-66
2022/12/14 01:46:46;;;;;;;30.65;11.68;;;-4.20;99.90;;;;;;5076357;28;20052;-66
2022/12/14 01:49:30;;;;;;;;;;;-4.30;99.90;;;;;;5077405;28;20049;-66
2022/12/14 01:52:35;;;;;;;28.35;10.85;;;-4.30;99.90;;;;;;5074851;28;20373;-66
2022/12/14 01:55:21;;;;;;;23.80;11.02;;;-4.20;99.90;;;;;;5075938;28;20094;-66
2022/12/14 01:58:00;;;;;;;30.15;12.35;;;-4.30;99.90;;;;;;5114426;28;20130;-68
2022/12/14 02:00:25;;;;;;;30.15;10.80;;;-4.30;99.90;;;;;;5113610;28;20050;-66
2022/12/14 02:03:14;;;;;;;36.25;11.07;;;-4.30;99.90;;;;;;5095883;28;20036;-66
2022/12/14 02:05:46;;;;;;;32.63;11.75;;;-4.30;99.90;;;;;;5058617;28;20099;-66
2022/12/14 02:08:13;;;;;;;31.48;11.07;;;-4.30;99.90;;;;;;5076351;28;20088;-66
2022/12/14 02:10:39;;;;;;;29.38;11.25;;;-4.40;99.90;;;;;;5076190;28;20056;-66
2022/12/14 02:13:13;;;;;;;;;;;-4.40;99.90;;;;;;5074868;28;20056;-66
2022/12/14 02:15:39;;;;;;;25.40;10.18;;;-4.40;99.90;;;;;;5114330;28;19920;-66
2022/12/14 02:18:09;;;;;;;26.88;11.05;;;-4.40;99.90;;;;;;5110500;28;20814;-66
2022/12/14 02:20:43;;;;;;;29.42;12.23;;;-4.40;99.90;;;;;;5113983;28;20131;-66
2022/12/14 02:23:35;;;;;;;23.40;10.13;;;-4.50;99.90;;;;;;5054793;28;20823;-66
2022/12/14 02:26:17;;;;;;;30.15;11.60;;;-4.50;99.90;;;;;;5072090;28;20173;-66
2022/12/14 02:28:57;;;;;;;29.77;10.85;;;-4.50;99.90;;;;;;5072931;28;20454;-66
2022/12/14 02:31:43;;;;;;;34.85;12.13;;;-4.50;99.90;;;;;;5072507;28;20124;-67
2022/12/14 02:34:34;;;;;;;27.48;10.70;;;-4.50;99.90;;;;;;5072642;28;20711;-66
2022/12/14 02:37:16;;;;;;;25.58;10.82;;;-4.60;99.90;;;;;;5100273;28;20055;-66
2022/12/14 02:39:54;;;;;;;27.85;12.00;;;-4.60;99.90;;;;;;5096476;28;20043;-66
2022/12/14 02:42:44;;;;;;;30.67;11.35;;;-4.70;99.90;;;;;;5075174;28;20067;-66
2022/12/14 02:45:25;;;;;;;29.42;10.90;;;-4.70;99.90;;;;;;5092603;28;20051;-65
2022/12/14 02:47:57;;;;;;;28.10;11.32;;;-4.80;99.90;;;;;;5092161;28;20087;-69
2022/12/14 02:50:29;;;;;;;33.53;11.32;;;-4.80;99.90;;;;;;5093108;28;20108;-66
2022/12/14 02:53:08;;;;;;;29.80;9.90;;;-4.80;99.90;;;;;;5091826;28;20052;-66
2022/12/14 02:55:39;;;;;;;26.80;10.98;;;-4.80;99.90;;;;;;5092246;28;20066;-66
2022/12/14 02:58:12;;;;;;;27.30;10.90;;;-4.90;99.90;;;;;;5091867;28;20370;-65
2022/12/14 03:00:38;;;;;;;33.00;11.82;;;-4.90;99.90;;;;;;5092557;28;20055;-65
2022/12/14 03:03:04;;;;;;;;;;;-4.90;99.90;;;;;;5092121;28;20040;-66
2022/12/14 03:05:30;;;;;;;31.67;10.57;;;-5.00;99.90;;;;;;5091160;28;19927;-66
2022/12/14 03:08:07;;;;;;;;;;;-5.00;99.90;;;;;;5085025;28;20048;-66
2022/12/14 03:10:46;;;;;;;25.02;9.25;;;-5.00;99.90;;;;;;5092336;28;20426;-66
2022/12/14 03:13:35;;;;;;;25.10;10.43;;;-5.00;99.90;;;;;;5091502;28;20056;-66
2022/12/14 03:16:07;;;;;;;21.35;10.00;;;-5.10;99.90;;;;;;5091447;28;20051;-66
2022/12/14 03:18:41;;;;;;;26.13;10.80;;;-5.10;99.90;;;;;;5092324;28;20147;-65
2022/12/14 03:21:14;;;;;;;34.78;10.85;;;-5.20;99.90;;;;;;5091347;28;20087;-65
2022/12/14 03:23:42;;;;;;;33.33;11.05;;;-5.20;99.90;;;;;;5096587;28;20058;-66
2022/12/14 03:26:24;;;;;;;31.52;11.77;;;-5.30;99.90;;;;;;5103727;28;20048;-65
2022/12/14 03:28:54;;;;;;;29.95;11.10;;;-5.30;99.90;;;;;;5091915;28;20032;-65
2022/12/14 03:31:25;;;;;;;27.83;11.35;;;-5.30;99.90;;;;;;5091357;28;20048;-65
2022/12/14 03:33:54;;;;;;;29.77;11.75;;;-5.30;99.90;;;;;;5092069;28;20062;-65
2022/12/14 03:36:51;;;;;;;26.00;11.05;;;-5.40;99.90;;;;;;5085195;28;20048;-65
2022/12/14 03:39:24;;;;;;;23.40;9.98;;;-5.40;99.90;;;;;;5111482;28;20051;-66
2022/12/14 03:42:03;;;;;;;27.80;11.27;;;-5.50;99.90;;;;;;5106892;28;20385;-65
2022/12/14 03:44:37;;;;;;;26.20;10.95;;;-5.50;99.90;;;;;;5091649;28;20511;-65
2022/12/14 03:47:23;;;;;;;32.80;11.32;;;-5.60;99.90;;;;;;5090936;28;20043;-65
2022/12/14 03:50:04;;;;;;;26.50;9.65;;;-5.60;99.90;;;;;;5073105;28;20060;-65
2022/12/14 03:52:38;;;;;;;34.25;10.23;;;-5.60;99.90;;;;;;5091563;28;20055;-65
2022/12/14 03:55:25;;;;;;;25.13;9.80;;;-5.60;99.90;;;;;;5090897;28;20040;-66
2022/12/14 03:58:24;;;;;;;26.05;10.60;;;-5.60;99.90;;;;;;5098277;28;20047;-65
2022/12/14 04:01:27;;;;;;;27.55;9.48;;;-5.70;99.90;;;;;;5111954;28;20054;-65
2022/12/14 04:03:58;;;;;;;31.13;10.50;;;-5.70;99.90;;;;;;5108525;28;20139;-65
2022/12/14 04:06:40;;;;;;;32.03;10.80;;;-5.80;99.90;;;;;;5110589;28;20120;-65
2022/12/14 04:09:23;;;;;;;25.33;10.32;;;-5.80;99.90;;;;;;5111220;28;20052;-67
2022/12/14 04:20:41;;;;;;;34.25;11.45;;;-5.80;99.90;;;;;;5092676;28;20052;-65
2022/12/14 04:26:03;;;;;;;33.75;10.77;;;-5.80;99.90;;;;;;5092473;28;20039;-65
2022/12/14 04:26:09;;;;;;;26.08;10.15;;;-5.70;99.90;;;;;;5110512;28;20065;-65
2022/12/14 04:31:33;;;;;;;32.67;10.85;;;-5.70;99.90;;;;;;5110922;28;20054;-66
2022/12/14 04:34:03;;;;;;;30.48;11.65;;;-5.70;99.90;;;;;;5111334;28;20051;-65
2022/12/14 04:36:31;;;;;;;26.73;9.20;;;-5.60;99.90;;;;;;5090150;28;20039;-65
2022/12/14 04:39:05;;;;;;;35.22;12.82;;;-5.60;99.90;;;;;;5106916;28;20055;-65
2022/12/14 04:41:35;;;;;;;38.50;12.45;;;-5.60;99.90;;;;;;5096026;28;20093;-65
2022/12/14 04:44:24;;;;;;;24.35;9.55;;;-5.60;99.90;;;;;;5090652;28;20056;-65
2022/12/14 04:46:52;;;;;;;29.27;10.30;;;-5.60;99.90;;;;;;5090553;28;20048;-65
2022/12/14 04:49:22;;;;;;;26.70;10.25;;;-5.70;99.90;;;;;;5090453;28;20048;-65
2022/12/14 04:51:59;;;;;;;30.83;10.50;;;-5.70;99.90;;;;;;5099844;28;20239;-65
2022/12/14 04:54:59;;;;;;;29.38;11.20;;;-5.70;99.90;;;;;;5110284;28;20108;-65
2022/12/14 04:57:41;;;;;;;28.35;10.02;;;-5.70;99.90;;;;;;5110270;28;20040;-65
2022/12/14 05:00:08;;;;;;;25.90;9.60;;;-5.80;99.90;;;;;;5110833;28;20056;-67
2022/12/14 05:02:48;;;;;;;31.13;10.88;;;-5.90;99.90;;;;;;5108371;28;20039;-65
2022/12/14 05:05:20;;;;;;;27.40;9.63;;;-6.00;99.90;;;;;;5110573;28;20040;-65
2022/12/14 05:07:58;;;;;;;32.20;10.88;;;-6.00;99.90;;;;;;5074241;28;20056;-65
2022/12/14 05:10:35;;;;;;;22.73;8.07;;;-6.00;99.90;;;;;;5091490;28;20048;-66
2022/12/14 05:13:13;;;;;;;26.35;10.65;;;-6.10;99.90;;;;;;5069857;28;20048;-65
2022/12/14 05:15:48;;;;;;;33.33;11.27;;;-6.10;99.90;;;;;;5070749;28;20056;-65
2022/12/14 05:18:14;;;;;;;31.65;10.02;;;-6.10;99.90;;;;;;5069625;28;20068;-65
2022/12/14 05:20:40;;;;;;;;;;;-6.20;99.90;;;;;;5070962;28;20052;-66
2022/12/14 05:23:06;;;;;;;29.15;9.20;;;-6.30;99.90;;;;;;5110260;28;19923;-65
2022/12/14 05:25:31;;;;;;;;;;;-6.30;99.90;;;;;;5108432;28;20052;-65
2022/12/14 05:27:57;;;;;;;28.92;9.57;;;-6.30;99.90;;;;;;5109186;28;19970;-65
2022/12/14 05:30:23;;;;;;;27.17;9.23;;;-6.40;99.90;;;;;;5110468;28;20462;-65
2022/12/14 05:32:49;;;;;;;;;;;-6.40;99.90;;;;;;5109015;28;20067;-65
2022/12/14 05:35:15;;;;;;;22.60;8.90;;;-6.40;99.90;;;;;;5110291;28;19927;-65
2022/12/14 05:37:41;;;;;;;;;;;-6.40;99.90;;;;;;5090812;28;20496;-65
2022/12/14 05:40:07;;;;;;;25.48;10.63;;;-6.50;99.90;;;;;;5090090;28;19927;-65
2022/12/14 05:42:33;;;;;;;30.77;10.45;;;-6.50;99.90;;;;;;5071609;28;20198;-64
2022/12/14 05:44:59;;;;;;;;;;;-6.50;99.90;;;;;;5091176;28;20533;-64
2022/12/14 05:47:26;;;;;;;23.67;9.82;;;-6.50;99.90;;;;;;5089343;28;19931;-64
2022/12/14 05:49:51;;;;;;;29.85;11.20;;;-6.50;99.90;;;;;;5111291;28;20047;-65
2022/12/14 05:52:17;;;;;;;;;;;-6.50;99.90;;;;;;5082909;28;20059;-65
2022/12/14 05:54:42;;;;;;;31.27;10.75;;;-6.50;99.90;;;;;;5107180;28;20018;-65
2022/12/14 05:57:08;;;;;;;25.88;9.82;;;-6.50;99.90;;;;;;5113993;28;20406;-66
2022/12/14 05:59:34;;;;;;;;;;;-6.50;99.90;;;;;;5078992;28;20050;-65
2022/12/14 06:01:59;;;;;;;34.20;9.82;;;-6.60;99.90;;;;;;5099451;28;19931;-67
2022/12/14 06:04:25;;;;;;;;;;;-6.50;99.90;;;;;;5093418;28;20051;-65
2022/12/14 06:06:51;;;;;;;24.73;9.18;;;-6.60;99.90;;;;;;5093012;28;19920;-65
2022/12/14 06:09:17;;;;;;;33.72;11.60;;;-6.70;99.90;;;;;;5093968;28;20465;-65
2022/12/14 06:11:44;;;;;;;26.85;9.93;;;-6.70;99.90;;;;;;5112387;28;20130;-65
2022/12/14 06:14:11;;;;;;;34.80;10.02;;;-6.80;99.90;;;;;;5113784;28;20039;-66
2022/12/14 06:16:40;;;;;;;39.65;10.10;;;-6.80;99.90;;;;;;5098161;28;20044;-64
2022/12/14 06:19:06;;;;;;;29.35;11.52;;;-6.80;99.90;;;;;;5095032;28;20059;-65
2022/12/14 06:21:34;;;;;;;29.55;10.55;;;-6.70;99.90;;;;;;5108195;28;20044;-64
2022/12/14 06:24:03;;;;;;;26.35;9.35;;;-6.70;99.90;;;;;;5075431;28;20485;-64
2022/12/14 06:26:30;;;;;;;26.38;9.10;;;-6.70;99.90;;;;;;5092384;28;20047;-65
2022/12/14 06:28:57;;;;;;;29.42;9.70;;;-6.70;99.90;;;;;;5092999;28;20047;-64
2022/12/14 06:31:25;;;;;;;24.50;8.63;;;-6.70;99.90;;;;;;5094032;28;20091;-64
2022/12/14 06:33:53;;;;;;;23.48;10.20;;;-6.70;99.90;;;;;;5093513;28;20050;-64
2022/12/14 06:36:27;;;;;;;25.17;9.60;;;-6.70;99.90;;;;;;5092166;28;20051;-64
2022/12/14 06:38:54;;;;;;;22.90;8.50;;;-6.70;99.90;;;;;;5099153;28;20544;-65
2022/12/14 06:41:20;;;;;;;23.92;9.48;;;-6.60;99.90;;;;;;5093693;28;20044;-64
2022/12/14 06:43:46;;;;;;;24.83;9.20;;;-6.60;99.90;;;;;;5092390;28;20061;-64
2022/12/14 06:46:13;;;;;;;;;;;-6.70;99.90;;;;;;5082509;28;20040;-65
2022/12/14 06:48:38;;;;;;;29.10;9.87;;;-6.60;99.90;;;;;;5080894;28;19920;-64
2022/12/14 06:51:05;;;;;;;;;;;-6.60;99.90;;;;;;5103598;28;20043;-65
2022/12/14 06:53:31;;;;;;;25.10;8.85;;;-6.60;99.90;;;;;;5091002;28;20673;-65
2022/12/14 06:56:11;;;;;;;30.90;10.00;;;-6.70;99.90;;;;;;5074501;28;20090;-64
2022/12/14 06:58:37;;;;;;;32.20;9.45;;;-6.70;99.90;;;;;;5091565;28;20475;-64
2022/12/14 07:01:03;;;;;;;;;;;-6.70;99.90;;;;;;5092624;28;20131;-64
2022/12/14 07:03:29;;;;;;;31.95;8.43;;;-6.70;99.90;;;;;;5092219;28;19924;-65
2022/12/14 07:05:59;;;;;;;23.02;9.55;;;-6.70;99.90;;;;;;5092117;28;20059;-65
2022/12/14 07:08:27;;;;;;;30.08;8.60;;;-6.70;99.90;;;;;;5091779;28;20076;-64
2022/12/14 07:10:53;;;;;;;27.50;8.45;;;-6.80;99.90;;;;;;5092211;28;20051;-65
2022/12/14 07:13:20;;;;;;;23.90;10.27;;;-6.80;99.90;;;;;;5091545;28;20047;-67
2022/12/14 07:15:56;;;;;;;29.27;9.98;;;-6.80;99.90;;;;;;5092468;28;20131;-65
2022/12/14 07:18:22;;;;;;;25.08;10.15;;;-6.90;99.90;;;;;;5091280;28;20081;-64
2022/12/14 07:20:59;;;;;;;21.88;9.52;;;-6.90;99.90;;;;;;5080789;28;20050;-64
2022/12/14 07:23:27;;;;;;;31.75;10.52;;;-7.00;99.90;;;;;;5109674;28;20047;-64
2022/12/14 07:25:53;;;;;;;25.25;8.90;;;-7.00;99.90;;;;;;5091953;28;20131;-64
2022/12/14 07:28:19;;;;;;;;;;;-7.00;99.90;;;;;;5091907;28;20119;-66
2022/12/14 07:30:45;;;;;;;24.38;8.38;;;-7.00;99.90;;;;;;5091962;28;19920;-64
2022/12/14 07:33:10;;;;;;;16.98;8.20;;;-7.00;99.90;;;;;;5081330;28;20048;-64
2022/12/14 07:35:36;;;;;;;;;;;-7.10;99.90;;;;;;5071780;28;20493;-64
2022/12/14 07:38:02;;;;;;;19.48;9.05;;;-7.00;99.90;;;;;;5055643;28;19975;-66
2022/12/14 07:40:28;;;;;;;20.70;8.15;;;-7.10;99.90;;;;;;5077511;28;20082;-66
2022/12/14 07:42:54;;;;;;;;;;;-7.00;99.90;;;;;;5091798;28;20531;-64
2022/12/14 07:45:20;;;;;;;21.70;8.93;;;-7.00;99.90;;;;;;5092108;28;19923;-63
2022/12/14 07:47:45;;;;;;;;;;;-6.90;99.90;;;;;;5098363;28;20062;-64
2022/12/14 07:50:11;;;;;;;22.52;9.02;;;-7.00;99.90;;;;;;5105069;28;19924;-64
2022/12/14 07:52:36;;;;;;;;;;;-7.00;99.90;;;;;;5091113;28;20056;-64
2022/12/14 07:55:02;;;;;;;26.42;8.35;;;-6.90;99.90;;;;;;5101803;28;19924;-64
2022/12/14 07:57:28;;;;;;;21.73;9.32;;;-6.90;99.90;;;;;;5093236;28;20040;-64
2022/12/14 07:59:54;;;;;;;;;;;-6.90;99.90;;;;;;5089536;28;20040;-65
2022/12/14 08:02:19;;;;;;;28.42;10.07;;;-6.90;99.90;;;;;;5089618;28;19976;-64
2022/12/14 08:04:45;;;;;;;;;;;-6.90;99.90;;;;;;5086360;28;20075;-64
2022/12/14 08:07:10;;;;;;;19.27;7.65;;;-6.90;99.90;;;;;;5089179;28;19920;-64
2022/12/14 08:09:36;;;;;;;;;;;-6.90;99.90;;;;;;5081469;28;20048;-63
2022/12/14 08:12:02;;;;;;;22.60;9.38;;;-6.90;99.90;;;;;;5087689;28;19924;-65
2022/12/14 08:14:27;;;;;;;;;;;-6.90;99.90;;;;;;5089448;28;20036;-65
2022/12/14 08:16:53;;;;;;;20.48;7.75;;;-7.00;99.90;;;;;;5088898;28;19927;-64
2022/12/14 08:19:19;;;;;;;;;;;-6.90;99.90;;;;;;5090038;28;20039;-64
2022/12/14 08:21:45;;;;;;;26.08;8.57;;;-7.00;99.90;;;;;;5091328;28;19923;-64
2022/12/14 08:24:11;;;;;;;;;;;-7.00;99.90;;;;;;5092010;28;20401;-65
2022/12/14 08:26:37;;;;;;;26.02;9.20;;;-6.90;99.90;;;;;;5089134;28;20033;-64
2022/12/14 08:29:03;;;;;;;;;;;-6.90;99.90;;;;;;5079695;28;20493;-66
2022/12/14 08:31:28;;;;;;;26.52;8.27;;;-6.90;99.90;;;;;;5078513;28;19966;-65
2022/12/14 08:33:54;;;;;;;;;;;-6.80;99.90;;;;;;5075656;28;20048;-64
2022/12/14 08:36:27;;;;;;;20.52;8.55;;;-6.80;99.90;;;;;;5080347;28;20343;-68
2022/12/14 08:38:55;;;;;;;24.90;8.00;;;-6.70;99.90;;;;;;5096281;28;20047;-64
2022/12/14 08:41:22;;;;;;;26.13;8.05;;;-6.60;99.90;;;;;;5099792;28;20040;-64
2022/12/14 08:43:50;;;;;;;24.42;9.23;;;-6.60;99.90;;;;;;5089414;28;20035;-64
2022/12/14 08:46:16;;;;;;;24.90;7.97;;;-6.50;99.90;;;;;;5077054;28;20107;-64
2022/12/14 08:48:42;;;;;;;25.98;7.75;;;-6.40;99.90;;;;;;5081534;28;20048;-64
2022/12/14 08:51:08;;;;;;;;;;;-6.20;99.90;;;;;;5063243;28;20051;-64
2022/12/14 08:53:36;;;;;;;18.75;6.80;;;-6.10;99.90;;;;;;5088307;28;19924;-64
2022/12/14 08:56:07;;;;;;;24.63;9.27;;;-5.90;99.90;;;;;;5085433;28;20044;-63
2022/12/14 08:58:33;;;;;;;23.40;8.60;;;-5.70;99.90;;;;;;5069772;28;20052;-64
2022/12/14 09:01:02;;;;;;;22.05;8.30;;;-5.60;99.90;;;;;;5081893;28;20114;-65
2022/12/14 09:03:27;;;;;;;22.50;8.80;;;-5.40;99.90;;;;;;5072047;28;20098;-64
2022/12/14 09:05:54;;;;;;;;;;;-5.30;99.90;;;;;;5058450;28;20056;-64
2022/12/14 09:08:21;;;;;;;22.08;8.43;;;-5.20;99.90;;;;;;5069830;28;19934;-65
2022/12/14 09:10:50;;;;;;;24.30;8.45;;;-5.10;99.90;;;;;;5069449;28;20455;-65
2022/12/14 09:13:17;;;;;;;19.35;8.32;;;-5.00;99.90;;;;;;5054162;28;20557;-65
2022/12/14 09:15:43;;;;;;;20.83;9.23;;;-5.00;99.90;;;;;;5099844;28;20405;-65
2022/12/14 09:18:09;;;;;;;24.40;9.38;;;-4.90;99.90;;;;;;5104021;28;20038;-64
2022/12/14 09:20:34;;;;;;;19.35;8.85;;;-4.90;99.90;;;;;;5082630;28;20115;-64
2022/12/14 09:23:00;;;;;;;27.30;9.15;;;-4.80;99.90;;;;;;5091197;28;20488;-65
2022/12/14 09:25:26;;;;;;;25.42;7.80;;;-4.80;99.90;;;;;;5092575;28;20044;-64
2022/12/14 09:27:51;;;;;;;23.58;9.30;;;-4.70;99.90;;;;;;5091786;28;20042;-65
2022/12/14 09:30:17;;;;;;;19.55;8.35;;;-4.60;99.90;;;;;;5093740;28;20085;-64
2022/12/14 09:32:45;;;;;;;20.67;8.88;;;-4.50;99.90;;;;;;5095693;28;20082;-64
2022/12/14 09:35:11;;;;;;;25.83;8.30;;;-4.40;99.90;;;;;;5082655;28;20076;-66
2022/12/14 09:37:37;;;;;;;24.75;8.77;;;-4.30;99.90;;;;;;5092491;28;20076;-64
2022/12/14 09:40:03;;;;;;;;;;;-4.20;99.90;;;;;;5093730;28;20106;-65
2022/12/14 09:42:37;;;;;;;34.13;7.22;;;-4.10;99.90;;;;;;5092690;28;19920;-65
2022/12/14 09:45:16;;;;;;;23.10;8.30;;;-4.00;99.90;;;;;;5091414;28;20092;-65
2022/12/14 09:48:19;;;;;;;21.38;8.93;;;-3.90;99.90;;;;;;5073201;28;20060;-65
2022/12/14 09:50:48;;;;;;;27.58;9.23;;;-3.80;99.90;;;;;;5090709;28;20040;-65
2022/12/14 09:53:15;;;;;;;23.98;9.43;;;-3.80;99.90;;;;;;5091672;28;20043;-65
2022/12/14 09:55:47;;;;;;;21.83;8.48;;;-3.10;99.90;;;;;;5087882;28;20127;-64
2022/12/14 09:58:18;;;;;;;20.55;9.45;;;-3.70;99.90;;;;;;5089615;28;20437;-64
2022/12/14 10:01:22;;;;;;;24.77;8.73;;;-3.60;99.90;;;;;;5091543;28;20516;-64
2022/12/14 10:04:18;;;;;;;24.17;9.50;;;-3.50;99.90;;;;;;5090887;28;20040;-64
2022/12/14 10:07:02;;;;;;;19.48;7.25;;;-3.40;99.90;;;;;;5072161;28;20062;-65
2022/12/14 10:09:50;;;;;;;23.15;8.32;;;-3.30;99.90;;;;;;5091617;28;20048;-64
2022/12/14 10:12:31;;;;;;;21.83;9.57;;;-3.20;99.90;;;;;;5090522;28;20097;-65
2022/12/14 10:15:13;;;;;;;22.48;8.63;;;-3.10;99.90;;;;;;5091654;28;20178;-64
2022/12/14 10:18:07;;;;;;;22.70;8.85;;;-3.00;99.90;;;;;;5092776;28;20040;-65
2022/12/14 10:20:58;;;;;;;26.60;10.32;;;-2.90;99.90;;;;;;5093669;28;20052;-64
2022/12/14 10:23:25;;;;;;;23.08;9.27;;;-2.80;99.90;;;;;;5076708;28;20088;-64
2022/12/14 10:25:55;;;;;;;26.25;9.75;;;-2.70;99.90;;;;;;5092286;28;20040;-65
2022/12/14 10:28:35;;;;;;;25.92;9.70;;;-2.60;99.90;;;;;;5082529;28;20032;-64
2022/12/14 10:31:01;;;;;;;25.02;8.93;;;-2.40;99.90;;;;;;5081267;28;20059;-65
2022/12/14 10:33:30;;;;;;;23.10;9.27;;;-2.30;99.90;;;;;;5081601;28;20072;-64
2022/12/14 10:36:16;;;;;;;22.38;9.15;;;-2.10;99.90;;;;;;5080882;28;20053;-64
2022/12/14 10:38:52;;;;;;;27.58;9.88;;;-2.00;99.90;;;;;;5084876;28;20540;-64
2022/12/14 10:41:30;;;;;;;28.75;9.27;;;-1.80;99.90;;;;;;5066580;28;20048;-64
2022/12/14 10:44:04;;;;;;;25.25;9.23;;;-1.60;99.90;;;;;;5066344;28;20127;-65
2022/12/14 10:47:11;;;;;;;23.20;8.23;;;-1.40;99.90;;;;;;5091447;28;20047;-64
2022/12/14 10:49:49;;;;;;;24.33;9.15;;;-1.00;99.90;;;;;;5088485;28;20124;-64
2022/12/14 10:52:23;;;;;;;25.52;10.18;;;0.00;99.90;;;;;;5091103;28;20123;-64
2022/12/14 10:54:53;;;;;;;27.15;9.30;;;1.00;99.90;;;;;;5074139;28;20061;-65
2022/12/14 10:57:21;;;;;;;25.85;10.00;;;2.10;99.90;;;;;;5072430;28;20102;-65
2022/12/14 10:59:47;;;;;;;25.40;9.55;;;2.70;99.90;;;;;;5071230;28;20554;-66
2022/12/14 11:02:17;;;;;;;23.30;9.27;;;3.30;99.90;;;;;;5076163;28;20093;-65
2022/12/14 11:04:58;;;;;;;27.33;10.38;;;3.90;99.90;;;;;;5077692;28;20054;-66
2022/12/14 11:07:48;;;;;;;24.23;9.10;;;4.50;99.90;;;;;;5085667;28;20044;-65
2022/12/14 11:10:23;;;;;;;22.13;9.25;;;5.20;99.90;;;;;;5080372;28;20058;-66
2022/12/14 11:13:13;;;;;;;25.77;10.20;;;5.50;99.90;;;;;;5079132;28;20186;-65
2022/12/14 11:15:41;;;;;;;20.90;9.27;;;5.70;99.90;;;;;;5083113;28;20047;-69
2022/12/14 11:18:15;;;;;;;26.77;10.32;;;5.80;99.90;;;;;;5079253;28;20040;-64
2022/12/14 11:20:49;;;;;;;19.63;8.73;;;6.00;99.90;;;;;;5081196;28;20051;-67
2022/12/14 11:23:26;;;;;;;20.13;8.57;;;6.00;99.90;;;;;;5087382;28;20494;-66
2022/12/14 11:25:58;;;;;;;18.75;8.23;;;5.90;99.90;;;;;;5067634;28;20049;-65
2022/12/14 11:28:45;;;;;;;21.77;8.63;;;6.00;99.90;;;;;;5086464;28;20040;-65
2022/12/14 11:31:31;;;;;;;18.80;8.70;;;6.00;99.90;;;;;;5087218;28;20102;-65
2022/12/14 11:33:58;;;;;;;21.42;8.30;;;6.20;99.90;;;;;;5064600;28;20093;-66
2022/12/14 11:36:41;;;;;;;21.75;8.57;;;6.20;99.90;;;;;;5081899;28;20051;-68
2022/12/14 11:39:12;;;;;;;18.63;8.68;;;6.40;99.90;;;;;;5048680;28;20324;-68
2022/12/14 11:41:40;;;;;;;18.83;8.05;;;6.40;99.90;;;;;;5082175;28;20075;-68
2022/12/14 11:44:25;;;;;;;18.25;7.38;;;6.60;99.90;;;;;;5087251;28;20410;-69
2022/12/14 11:46:56;;;;;;;18.17;8.52;;;6.70;99.90;;;;;;5089749;28;20052;-69
2022/12/14 11:49:34;;;;;;;17.40;7.80;;;7.00;99.90;;;;;;5086983;28;20047;-69
2022/12/14 11:52:22;;;;;;;18.98;7.97;;;7.30;99.90;;;;;;5079594;28;20401;-69
2022/12/14 11:55:09;;;;;;;19.40;8.82;;;7.60;99.90;;;;;;5081660;28;20048;-71
2022/12/14 11:57:56;;;;;;;17.23;7.97;;;8.30;99.90;;;;;;5068887;28;20051;-70
2022/12/14 12:00:26;;;;;;;;;;;8.90;99.90;;;;;;5090135;28;20044;-70
2022/12/14 12:03:05;;;;;;;18.67;8.30;;;9.60;77.60;;;;;;5087572;28;19919;-70
2022/12/14 12:05:33;;;;;;;15.55;7.30;;;10.60;99.90;;;;;;5069197;28;20056;-70
2022/12/14 12:08:06;;;;;;;19.63;8.52;;;10.90;99.90;;;;;;5074407;28;20052;-71
2022/12/14 12:10:46;;;;;;;21.25;8.35;;;11.10;99.90;;;;;;5092755;28;20127;-71
2022/12/14 12:13:37;;;;;;;16.60;8.32;;;11.80;92.90;;;;;;5090966;28;20048;-70
2022/12/14 12:16:19;;;;;;;18.20;7.85;;;12.50;88.00;;;;;;5086574;28;20382;-68
2022/12/14 12:19:07;;;;;;;16.55;7.50;;;13.30;72.60;;;;;;5086439;28;20116;-71
2022/12/14 12:21:39;;;;;;;16.85;7.72;;;13.70;76.50;;;;;;5081758;28;20374;-72
2022/12/14 12:24:21;;;;;;;16.73;8.63;;;14.30;74.40;;;;;;5067919;28;20443;-74
2022/12/14 12:26:50;;;;;;;16.73;7.90;;;14.60;71.80;;;;;;5070907;28;20144;-75
2022/12/14 12:29:47;;;;;;;15.65;7.57;;;15.20;69.40;;;;;;5052438;28;20087;-72
2022/12/14 12:32:29;;;;;;;17.10;8.32;;;15.70;56.20;;;;;;5069307;28;20402;-72
2022/12/14 12:35:49;;;;;;;16.88;8.27;;;16.20;59.60;;;;;;5082967;28;20040;-74
2022/12/14 12:38:34;;;;;;;16.58;8.15;;;16.50;52.40;;;;;;5075991;28;20074;-75
2022/12/14 12:41:21;;;;;;;16.40;8.05;;;16.70;62.80;;;;;;5073729;28;20043;-75
2022/12/14 12:43:53;;;;;;;14.40;7.75;;;16.50;60.60;;;;;;5090201;28;20039;-75
2022/12/14 12:46:29;;;;;;;17.17;8.55;;;15.90;61.80;;;;;;5089019;28;20446;-74
2022/12/14 12:49:06;;;;;;;15.40;8.20;;;15.60;57.20;;;;;;5088527;28;20048;-75
2022/12/14 12:51:48;;;;;;;15.52;7.97;;;15.60;60.30;;;;;;5087114;28;20109;-75
2022/12/14 12:54:23;;;;;;;14.88;7.35;;;15.60;52.00;;;;;;5086424;28;20046;-74
2022/12/14 12:56:52;;;;;;;16.67;8.07;;;15.80;57.40;;;;;;5053792;28;20193;-74
2022/12/14 12:59:41;;;;;;;17.50;8.90;;;15.90;57.90;;;;;;5079002;28;20040;-74
2022/12/14 13:02:30;;;;;;;17.17;8.75;;;15.90;46.90;;;;;;5083120;28;20048;-74
2022/12/14 13:04:58;;;;;;;16.00;8.25;;;15.90;47.30;;;;;;5077378;28;20056;-74
2022/12/14 13:07:42;;;;;;;17.88;8.88;;;16.00;55.40;;;;;;5069360;28;20056;-73
2022/12/14 13:10:29;;;;;;;19.25;8.82;;;16.00;49.00;;;;;;5062730;28;20044;-66
2022/12/14 13:13:06;;;;;;;15.55;7.85;;;16.00;47.50;;;;;;5068779;28;20080;-67
2022/12/14 13:15:39;;;;;;;17.55;8.10;;;15.90;51.40;;;;;;5080900;28;20127;-66
2022/12/14 13:18:21;;;;;;;15.23;7.75;;;16.10;53.30;;;;;;5080884;28;20068;-67
2022/12/14 13:20:47;;;;;;;16.40;8.05;;;16.40;51.90;;;;;;5070995;28;20072;-68
2022/12/14 13:23:14;;;;;;;14.77;7.47;;;16.60;52.60;;;;;;5068460;28;20114;-66